sensor_id;sensor_type;location;lat;lon;timestamp;P1;durP1;ratioP1;P2;durP2;ratioP2
3849;SDS011;1940;51.052;13.678;2023-08-12T00:01:49;24.60;;;10.53;;
3849;SDS011;1940;51.052;13.678;2023-08-12T00:04:15;20.57;;;9.90;;
3849;SDS011;1940;51.052;13.678;2023-08-12T00:06:41;17.90;;;8.50;;
3849;SDS011;1940;51.052;13.678;2023-08-12T00:09:07;20.47;;;9.17;;
3849;SDS011;1940;51.052;13.678;2023-08-12T00:11:34;18.03;;;8.40;;
3849;SDS011;1940;51.052;13.678;2023-08-12T00:14:00;21.53;;;9.13;;
3849;SDS011;1940;51.052;13.678;2023-08-12T00:16:25;22.83;;;9.53;;
3849;SDS011;1940;51.052;13.678;2023-08-12T00:18:51;14.87;;;8.50;;
3849;SDS011;1940;51.052;13.678;2023-08-12T00:21:16;21.70;;;9.13;;
3849;SDS011;1940;51.052;13.678;2023-08-12T00:23:42;18.57;;;9.17;;
3849;SDS011;1940;51.052;13.678;2023-08-12T00:26:09;16.70;;;8.90;;
3849;SDS011;1940;51.052;13.678;2023-08-12T00:28:35;15.33;;;8.67;;
3849;SDS011;1940;51.052;13.678;2023-08-12T00:31:02;16.60;;;8.17;;
3849;SDS011;1940;51.052;13.678;2023-08-12T00:33:29;15.77;;;8.50;;
3849;SDS011;1940;51.052;13.678;2023-08-12T00:35:54;18.87;;;8.90;;
3849;SDS011;1940;51.052;13.678;2023-08-12T00:38:20;11.33;;;7.87;;
3849;SDS011;1940;51.052;13.678;2023-08-12T00:40:46;12.83;;;7.53;;
3849;SDS011;1940;51.052;13.678;2023-08-12T00:43:11;14.87;;;8.03;;
3849;SDS011;1940;51.052;13.678;2023-08-12T00:45:37;11.60;;;7.07;;
3849;SDS011;1940;51.052;13.678;2023-08-12T00:48:03;10.33;;;6.80;;
3849;SDS011;1940;51.052;13.678;2023-08-12T00:50:29;12.00;;;6.73;;
3849;SDS011;1940;51.052;13.678;2023-08-12T00:52:55;16.53;;;6.53;;
3849;SDS011;1940;51.052;13.678;2023-08-12T00:55:21;7.63;;;5.60;;
3849;SDS011;1940;51.052;13.678;2023-08-12T00:57:47;9.17;;;5.57;;
3849;SDS011;1940;51.052;13.678;2023-08-12T01:00:13;11.17;;;6.60;;
3849;SDS011;1940;51.052;13.678;2023-08-12T01:02:41;7.30;;;5.13;;
3849;SDS011;1940;51.052;13.678;2023-08-12T01:05:13;10.33;;;5.90;;
3849;SDS011;1940;51.052;13.678;2023-08-12T01:07:39;9.33;;;5.20;;
3849;SDS011;1940;51.052;13.678;2023-08-12T01:10:05;8.47;;;5.33;;
3849;SDS011;1940;51.052;13.678;2023-08-12T01:12:35;10.57;;;5.80;;
3849;SDS011;1940;51.052;13.678;2023-08-12T01:15:07;10.30;;;5.40;;
3849;SDS011;1940;51.052;13.678;2023-08-12T01:17:36;8.23;;;5.67;;
3849;SDS011;1940;51.052;13.678;2023-08-12T01:20:03;9.17;;;6.10;;
3849;SDS011;1940;51.052;13.678;2023-08-12T01:22:36;10.40;;;5.13;;
3849;SDS011;1940;51.052;13.678;2023-08-12T01:25:04;9.43;;;6.00;;
3849;SDS011;1940;51.052;13.678;2023-08-12T01:27:30;8.27;;;5.47;;
3849;SDS011;1940;51.052;13.678;2023-08-12T01:29:56;8.37;;;5.50;;
3849;SDS011;1940;51.052;13.678;2023-08-12T01:32:34;9.93;;;5.40;;
3849;SDS011;1940;51.052;13.678;2023-08-12T01:35:07;13.33;;;5.70;;
3849;SDS011;1940;51.052;13.678;2023-08-12T01:37:40;8.67;;;5.20;;
3849;SDS011;1940;51.052;13.678;2023-08-12T01:40:07;10.37;;;5.40;;
3849;SDS011;1940;51.052;13.678;2023-08-12T01:42:35;13.33;;;5.60;;
3849;SDS011;1940;51.052;13.678;2023-08-12T01:45:02;9.10;;;5.40;;
3849;SDS011;1940;51.052;13.678;2023-08-12T01:47:28;14.80;;;5.80;;
3849;SDS011;1940;51.052;13.678;2023-08-12T01:49:54;9.80;;;5.70;;
3849;SDS011;1940;51.052;13.678;2023-08-12T01:52:20;9.57;;;6.30;;
3849;SDS011;1940;51.052;13.678;2023-08-12T01:54:46;9.30;;;5.60;;
3849;SDS011;1940;51.052;13.678;2023-08-12T01:57:11;10.00;;;5.70;;
3849;SDS011;1940;51.052;13.678;2023-08-12T01:59:37;10.47;;;5.93;;
3849;SDS011;1940;51.052;13.678;2023-08-12T02:02:04;7.50;;;5.47;;
3849;SDS011;1940;51.052;13.678;2023-08-12T02:04:30;7.50;;;4.90;;
3849;SDS011;1940;51.052;13.678;2023-08-12T02:06:55;10.37;;;5.60;;
3849;SDS011;1940;51.052;13.678;2023-08-12T02:09:22;9.03;;;5.27;;
3849;SDS011;1940;51.052;13.678;2023-08-12T02:11:48;8.10;;;5.27;;
3849;SDS011;1940;51.052;13.678;2023-08-12T02:14:14;12.00;;;5.83;;
3849;SDS011;1940;51.052;13.678;2023-08-12T02:16:40;8.23;;;5.23;;
3849;SDS011;1940;51.052;13.678;2023-08-12T02:19:05;10.60;;;5.40;;
3849;SDS011;1940;51.052;13.678;2023-08-12T02:21:31;9.17;;;5.30;;
3849;SDS011;1940;51.052;13.678;2023-08-12T02:23:56;7.63;;;5.43;;
3849;SDS011;1940;51.052;13.678;2023-08-12T02:26:22;6.97;;;4.73;;
3849;SDS011;1940;51.052;13.678;2023-08-12T02:28:47;6.57;;;5.23;;
3849;SDS011;1940;51.052;13.678;2023-08-12T02:31:13;8.60;;;5.50;;
3849;SDS011;1940;51.052;13.678;2023-08-12T02:33:40;6.83;;;5.13;;
3849;SDS011;1940;51.052;13.678;2023-08-12T02:36:05;9.77;;;6.03;;
3849;SDS011;1940;51.052;13.678;2023-08-12T02:38:31;9.20;;;5.13;;
3849;SDS011;1940;51.052;13.678;2023-08-12T02:40:56;8.27;;;5.20;;
3849;SDS011;1940;51.052;13.678;2023-08-12T02:43:22;8.50;;;4.53;;
3849;SDS011;1940;51.052;13.678;2023-08-12T02:45:47;8.20;;;5.30;;
3849;SDS011;1940;51.052;13.678;2023-08-12T02:48:13;7.03;;;5.17;;
3849;SDS011;1940;51.052;13.678;2023-08-12T02:50:38;6.50;;;4.83;;
3849;SDS011;1940;51.052;13.678;2023-08-12T02:53:04;13.63;;;5.37;;
3849;SDS011;1940;51.052;13.678;2023-08-12T02:55:31;7.10;;;5.00;;
3849;SDS011;1940;51.052;13.678;2023-08-12T02:57:57;6.90;;;4.90;;
3849;SDS011;1940;51.052;13.678;2023-08-12T03:00:23;7.70;;;5.40;;
3849;SDS011;1940;51.052;13.678;2023-08-12T03:02:48;8.87;;;4.73;;
3849;SDS011;1940;51.052;13.678;2023-08-12T03:05:14;24.83;;;4.97;;
3849;SDS011;1940;51.052;13.678;2023-08-12T03:07:40;7.97;;;5.30;;
3849;SDS011;1940;51.052;13.678;2023-08-12T03:10:06;6.73;;;5.00;;
3849;SDS011;1940;51.052;13.678;2023-08-12T03:12:32;6.27;;;5.23;;
3849;SDS011;1940;51.052;13.678;2023-08-12T03:14:57;7.90;;;4.83;;
3849;SDS011;1940;51.052;13.678;2023-08-12T03:17:22;11.07;;;5.57;;
3849;SDS011;1940;51.052;13.678;2023-08-12T03:19:48;10.43;;;6.00;;
3849;SDS011;1940;51.052;13.678;2023-08-12T03:22:14;7.60;;;5.10;;
3849;SDS011;1940;51.052;13.678;2023-08-12T03:24:39;8.40;;;5.60;;
3849;SDS011;1940;51.052;13.678;2023-08-12T03:27:05;8.50;;;4.90;;
3849;SDS011;1940;51.052;13.678;2023-08-12T03:29:30;10.27;;;5.30;;
3849;SDS011;1940;51.052;13.678;2023-08-12T03:31:56;6.23;;;4.77;;
3849;SDS011;1940;51.052;13.678;2023-08-12T03:34:22;6.13;;;4.83;;
3849;SDS011;1940;51.052;13.678;2023-08-12T03:36:47;7.40;;;4.87;;
3849;SDS011;1940;51.052;13.678;2023-08-12T03:39:14;8.67;;;5.10;;
3849;SDS011;1940;51.052;13.678;2023-08-12T03:41:39;8.13;;;5.17;;
3849;SDS011;1940;51.052;13.678;2023-08-12T03:44:05;9.70;;;5.23;;
3849;SDS011;1940;51.052;13.678;2023-08-12T03:46:30;8.30;;;5.00;;
3849;SDS011;1940;51.052;13.678;2023-08-12T03:48:56;8.93;;;5.23;;
3849;SDS011;1940;51.052;13.678;2023-08-12T03:51:22;8.00;;;5.00;;
3849;SDS011;1940;51.052;13.678;2023-08-12T03:53:47;9.33;;;5.40;;
3849;SDS011;1940;51.052;13.678;2023-08-12T03:56:13;10.30;;;5.20;;
3849;SDS011;1940;51.052;13.678;2023-08-12T03:58:40;8.63;;;5.40;;
3849;SDS011;1940;51.052;13.678;2023-08-12T04:01:06;7.83;;;5.43;;
3849;SDS011;1940;51.052;13.678;2023-08-12T04:03:31;10.27;;;5.33;;
3849;SDS011;1940;51.052;13.678;2023-08-12T04:05:57;9.40;;;5.50;;
3849;SDS011;1940;51.052;13.678;2023-08-12T04:08:22;9.23;;;5.87;;
3849;SDS011;1940;51.052;13.678;2023-08-12T04:10:49;8.63;;;5.30;;
3849;SDS011;1940;51.052;13.678;2023-08-12T04:13:16;8.97;;;5.07;;
3849;SDS011;1940;51.052;13.678;2023-08-12T04:15:41;7.20;;;4.83;;
3849;SDS011;1940;51.052;13.678;2023-08-12T04:18:07;8.33;;;5.53;;
3849;SDS011;1940;51.052;13.678;2023-08-12T04:20:33;7.13;;;5.03;;
3849;SDS011;1940;51.052;13.678;2023-08-12T04:22:58;6.70;;;4.77;;
3849;SDS011;1940;51.052;13.678;2023-08-12T04:25:24;10.47;;;4.93;;
3849;SDS011;1940;51.052;13.678;2023-08-12T04:27:50;6.83;;;5.00;;
3849;SDS011;1940;51.052;13.678;2023-08-12T04:30:16;6.43;;;5.00;;
3849;SDS011;1940;51.052;13.678;2023-08-12T04:32:42;6.73;;;5.33;;
3849;SDS011;1940;51.052;13.678;2023-08-12T04:35:08;10.50;;;4.93;;
3849;SDS011;1940;51.052;13.678;2023-08-12T04:37:33;8.33;;;4.93;;
3849;SDS011;1940;51.052;13.678;2023-08-12T04:40:00;14.00;;;4.47;;
3849;SDS011;1940;51.052;13.678;2023-08-12T04:42:25;6.47;;;4.70;;
3849;SDS011;1940;51.052;13.678;2023-08-12T04:44:51;6.23;;;4.20;;
3849;SDS011;1940;51.052;13.678;2023-08-12T04:47:17;6.50;;;4.30;;
3849;SDS011;1940;51.052;13.678;2023-08-12T04:49:42;4.70;;;4.00;;
3849;SDS011;1940;51.052;13.678;2023-08-12T04:52:08;7.73;;;3.83;;
3849;SDS011;1940;51.052;13.678;2023-08-12T04:54:33;5.30;;;4.30;;
3849;SDS011;1940;51.052;13.678;2023-08-12T04:56:59;7.40;;;4.80;;
3849;SDS011;1940;51.052;13.678;2023-08-12T04:59:24;6.50;;;4.90;;
3849;SDS011;1940;51.052;13.678;2023-08-12T05:01:50;6.83;;;4.60;;
3849;SDS011;1940;51.052;13.678;2023-08-12T05:04:16;8.17;;;4.20;;
3849;SDS011;1940;51.052;13.678;2023-08-12T05:06:41;8.10;;;4.33;;
3849;SDS011;1940;51.052;13.678;2023-08-12T05:09:07;11.60;;;4.90;;
3849;SDS011;1940;51.052;13.678;2023-08-12T05:11:33;5.30;;;4.07;;
3849;SDS011;1940;51.052;13.678;2023-08-12T05:13:59;6.47;;;4.77;;
3849;SDS011;1940;51.052;13.678;2023-08-12T05:16:24;6.40;;;3.73;;
3849;SDS011;1940;51.052;13.678;2023-08-12T05:18:50;6.77;;;3.80;;
3849;SDS011;1940;51.052;13.678;2023-08-12T05:21:16;8.43;;;4.70;;
3849;SDS011;1940;51.052;13.678;2023-08-12T05:23:41;6.30;;;3.87;;
3849;SDS011;1940;51.052;13.678;2023-08-12T05:26:07;5.53;;;3.80;;
3849;SDS011;1940;51.052;13.678;2023-08-12T05:28:32;4.90;;;3.43;;
3849;SDS011;1940;51.052;13.678;2023-08-12T05:30:58;6.40;;;3.83;;
3849;SDS011;1940;51.052;13.678;2023-08-12T05:33:23;6.80;;;4.00;;
3849;SDS011;1940;51.052;13.678;2023-08-12T05:35:49;6.83;;;3.83;;
3849;SDS011;1940;51.052;13.678;2023-08-12T05:38:15;6.00;;;3.80;;
3849;SDS011;1940;51.052;13.678;2023-08-12T05:40:41;4.90;;;3.70;;
3849;SDS011;1940;51.052;13.678;2023-08-12T05:43:07;3.70;;;3.27;;
3849;SDS011;1940;51.052;13.678;2023-08-12T05:45:33;6.10;;;3.97;;
3849;SDS011;1940;51.052;13.678;2023-08-12T05:47:58;6.13;;;3.80;;
3849;SDS011;1940;51.052;13.678;2023-08-12T05:50:24;8.63;;;4.60;;
3849;SDS011;1940;51.052;13.678;2023-08-12T05:52:50;7.97;;;4.00;;
3849;SDS011;1940;51.052;13.678;2023-08-12T05:55:15;4.50;;;3.60;;
3849;SDS011;1940;51.052;13.678;2023-08-12T05:57:41;11.93;;;4.10;;
3849;SDS011;1940;51.052;13.678;2023-08-12T06:00:06;5.97;;;4.23;;
3849;SDS011;1940;51.052;13.678;2023-08-12T06:02:32;9.23;;;4.10;;
3849;SDS011;1940;51.052;13.678;2023-08-12T06:04:58;4.60;;;3.80;;
3849;SDS011;1940;51.052;13.678;2023-08-12T06:07:23;5.33;;;4.00;;
3849;SDS011;1940;51.052;13.678;2023-08-12T06:09:49;7.67;;;4.00;;
3849;SDS011;1940;51.052;13.678;2023-08-12T06:12:15;7.60;;;3.50;;
3849;SDS011;1940;51.052;13.678;2023-08-12T06:14:41;4.90;;;3.60;;
3849;SDS011;1940;51.052;13.678;2023-08-12T06:17:07;6.07;;;3.57;;
3849;SDS011;1940;51.052;13.678;2023-08-12T06:19:32;6.30;;;3.57;;
3849;SDS011;1940;51.052;13.678;2023-08-12T06:21:58;6.50;;;3.87;;
3849;SDS011;1940;51.052;13.678;2023-08-12T06:24:24;5.93;;;3.80;;
3849;SDS011;1940;51.052;13.678;2023-08-12T06:26:50;5.97;;;3.73;;
3849;SDS011;1940;51.052;13.678;2023-08-12T06:29:15;6.53;;;3.50;;
3849;SDS011;1940;51.052;13.678;2023-08-12T06:31:41;5.60;;;3.87;;
3849;SDS011;1940;51.052;13.678;2023-08-12T06:34:06;5.60;;;3.63;;
3849;SDS011;1940;51.052;13.678;2023-08-12T06:36:32;6.50;;;3.50;;
3849;SDS011;1940;51.052;13.678;2023-08-12T06:38:58;6.03;;;3.57;;
3849;SDS011;1940;51.052;13.678;2023-08-12T06:41:23;5.83;;;3.93;;
3849;SDS011;1940;51.052;13.678;2023-08-12T06:43:49;5.87;;;3.97;;
3849;SDS011;1940;51.052;13.678;2023-08-12T06:46:14;7.33;;;4.53;;
3849;SDS011;1940;51.052;13.678;2023-08-12T06:48:40;6.30;;;4.33;;
3849;SDS011;1940;51.052;13.678;2023-08-12T06:51:05;5.77;;;4.60;;
3849;SDS011;1940;51.052;13.678;2023-08-12T06:53:37;5.07;;;3.80;;
3849;SDS011;1940;51.052;13.678;2023-08-12T06:56:04;4.83;;;3.90;;
3849;SDS011;1940;51.052;13.678;2023-08-12T06:58:29;6.80;;;3.70;;
3849;SDS011;1940;51.052;13.678;2023-08-12T07:00:55;6.43;;;3.93;;
3849;SDS011;1940;51.052;13.678;2023-08-12T07:03:21;6.07;;;3.93;;
3849;SDS011;1940;51.052;13.678;2023-08-12T07:05:47;4.17;;;3.40;;
3849;SDS011;1940;51.052;13.678;2023-08-12T07:08:13;5.63;;;3.57;;
3849;SDS011;1940;51.052;13.678;2023-08-12T07:10:39;8.57;;;3.73;;
3849;SDS011;1940;51.052;13.678;2023-08-12T07:13:06;9.90;;;4.60;;
3849;SDS011;1940;51.052;13.678;2023-08-12T07:15:32;9.07;;;3.70;;
3849;SDS011;1940;51.052;13.678;2023-08-12T07:17:58;7.90;;;3.70;;
3849;SDS011;1940;51.052;13.678;2023-08-12T07:20:24;6.03;;;4.00;;
3849;SDS011;1940;51.052;13.678;2023-08-12T07:22:50;4.00;;;3.60;;
3849;SDS011;1940;51.052;13.678;2023-08-12T07:25:15;5.60;;;3.73;;
3849;SDS011;1940;51.052;13.678;2023-08-12T07:27:41;4.40;;;3.37;;
3849;SDS011;1940;51.052;13.678;2023-08-12T07:30:07;4.00;;;3.37;;
3849;SDS011;1940;51.052;13.678;2023-08-12T07:32:33;4.10;;;3.57;;
3849;SDS011;1940;51.052;13.678;2023-08-12T07:34:59;4.00;;;3.37;;
3849;SDS011;1940;51.052;13.678;2023-08-12T07:37:25;6.77;;;3.53;;
3849;SDS011;1940;51.052;13.678;2023-08-12T07:39:51;4.93;;;3.70;;
3849;SDS011;1940;51.052;13.678;2023-08-12T07:42:16;6.00;;;3.70;;
3849;SDS011;1940;51.052;13.678;2023-08-12T07:44:42;4.80;;;3.47;;
3849;SDS011;1940;51.052;13.678;2023-08-12T07:47:08;4.10;;;3.40;;
3849;SDS011;1940;51.052;13.678;2023-08-12T07:49:34;4.70;;;3.10;;
3849;SDS011;1940;51.052;13.678;2023-08-12T07:52:00;4.73;;;3.53;;
3849;SDS011;1940;51.052;13.678;2023-08-12T07:54:25;5.47;;;3.03;;
3849;SDS011;1940;51.052;13.678;2023-08-12T07:56:51;7.07;;;3.17;;
3849;SDS011;1940;51.052;13.678;2023-08-12T07:59:18;8.37;;;3.10;;
3849;SDS011;1940;51.052;13.678;2023-08-12T08:01:44;4.37;;;3.30;;
3849;SDS011;1940;51.052;13.678;2023-08-12T08:04:10;4.53;;;3.13;;
3849;SDS011;1940;51.052;13.678;2023-08-12T08:06:36;3.40;;;3.10;;
3849;SDS011;1940;51.052;13.678;2023-08-12T08:09:01;10.93;;;3.37;;
3849;SDS011;1940;51.052;13.678;2023-08-12T08:11:29;7.00;;;3.23;;
3849;SDS011;1940;51.052;13.678;2023-08-12T08:13:57;4.27;;;3.00;;
3849;SDS011;1940;51.052;13.678;2023-08-12T08:16:23;4.50;;;3.00;;
3849;SDS011;1940;51.052;13.678;2023-08-12T08:18:48;5.37;;;3.40;;
3849;SDS011;1940;51.052;13.678;2023-08-12T08:21:14;5.50;;;2.70;;
3849;SDS011;1940;51.052;13.678;2023-08-12T08:23:40;3.13;;;2.70;;
3849;SDS011;1940;51.052;13.678;2023-08-12T08:26:06;4.60;;;3.00;;
3849;SDS011;1940;51.052;13.678;2023-08-12T08:28:32;5.90;;;2.40;;
3849;SDS011;1940;51.052;13.678;2023-08-12T08:30:58;7.30;;;2.87;;
3849;SDS011;1940;51.052;13.678;2023-08-12T08:33:26;4.53;;;2.90;;
3849;SDS011;1940;51.052;13.678;2023-08-12T08:35:53;4.33;;;3.07;;
3849;SDS011;1940;51.052;13.678;2023-08-12T08:38:19;4.13;;;3.30;;
3849;SDS011;1940;51.052;13.678;2023-08-12T08:40:44;4.20;;;3.30;;
3849;SDS011;1940;51.052;13.678;2023-08-12T08:43:10;3.40;;;3.10;;
3849;SDS011;1940;51.052;13.678;2023-08-12T08:45:43;5.23;;;2.60;;
3849;SDS011;1940;51.052;13.678;2023-08-12T08:48:10;3.83;;;3.30;;
3849;SDS011;1940;51.052;13.678;2023-08-12T08:50:36;7.03;;;2.33;;
3849;SDS011;1940;51.052;13.678;2023-08-12T08:53:02;4.13;;;2.80;;
3849;SDS011;1940;51.052;13.678;2023-08-12T08:55:31;3.23;;;2.60;;
3849;SDS011;1940;51.052;13.678;2023-08-12T08:57:57;5.30;;;2.47;;
3849;SDS011;1940;51.052;13.678;2023-08-12T09:00:23;3.90;;;2.70;;
3849;SDS011;1940;51.052;13.678;2023-08-12T09:02:48;3.17;;;2.37;;
3849;SDS011;1940;51.052;13.678;2023-08-12T09:05:15;3.43;;;2.67;;
3849;SDS011;1940;51.052;13.678;2023-08-12T09:07:42;2.80;;;2.53;;
3849;SDS011;1940;51.052;13.678;2023-08-12T09:10:11;3.00;;;2.73;;
3849;SDS011;1940;51.052;13.678;2023-08-12T09:12:37;2.50;;;2.30;;
3849;SDS011;1940;51.052;13.678;2023-08-12T09:15:03;2.60;;;2.40;;
3849;SDS011;1940;51.052;13.678;2023-08-12T09:17:31;2.77;;;2.57;;
3849;SDS011;1940;51.052;13.678;2023-08-12T09:19:57;2.20;;;2.00;;
3849;SDS011;1940;51.052;13.678;2023-08-12T09:22:24;3.00;;;2.40;;
3849;SDS011;1940;51.052;13.678;2023-08-12T09:24:50;2.47;;;2.27;;
3849;SDS011;1940;51.052;13.678;2023-08-12T09:27:21;2.63;;;2.43;;
3849;SDS011;1940;51.052;13.678;2023-08-12T09:29:47;1.97;;;1.87;;
3849;SDS011;1940;51.052;13.678;2023-08-12T09:32:13;2.00;;;1.90;;
3849;SDS011;1940;51.052;13.678;2023-08-12T09:34:53;9.17;;;2.50;;
3849;SDS011;1940;51.052;13.678;2023-08-12T09:37:23;2.60;;;2.40;;
3849;SDS011;1940;51.052;13.678;2023-08-12T09:39:50;2.60;;;2.20;;
3849;SDS011;1940;51.052;13.678;2023-08-12T09:42:16;4.73;;;2.60;;
3849;SDS011;1940;51.052;13.678;2023-08-12T09:44:42;3.70;;;2.17;;
3849;SDS011;1940;51.052;13.678;2023-08-12T09:47:09;2.10;;;1.87;;
3849;SDS011;1940;51.052;13.678;2023-08-12T09:49:35;3.37;;;1.77;;
3849;SDS011;1940;51.052;13.678;2023-08-12T09:52:01;1.67;;;1.53;;
3849;SDS011;1940;51.052;13.678;2023-08-12T09:54:28;2.73;;;1.80;;
3849;SDS011;1940;51.052;13.678;2023-08-12T09:56:57;3.10;;;1.70;;
3849;SDS011;1940;51.052;13.678;2023-08-12T09:59:24;3.33;;;1.70;;
3849;SDS011;1940;51.052;13.678;2023-08-12T10:01:55;1.90;;;1.80;;
3849;SDS011;1940;51.052;13.678;2023-08-12T10:04:22;3.00;;;1.77;;
3849;SDS011;1940;51.052;13.678;2023-08-12T10:06:51;1.80;;;1.70;;
3849;SDS011;1940;51.052;13.678;2023-08-12T10:09:17;1.80;;;1.70;;
3849;SDS011;1940;51.052;13.678;2023-08-12T10:11:43;1.90;;;1.80;;
3849;SDS011;1940;51.052;13.678;2023-08-12T10:14:10;1.90;;;1.70;;
3849;SDS011;1940;51.052;13.678;2023-08-12T10:16:37;4.40;;;2.13;;
3849;SDS011;1940;51.052;13.678;2023-08-12T10:19:04;3.33;;;2.17;;
3849;SDS011;1940;51.052;13.678;2023-08-12T10:21:30;2.67;;;2.10;;
3849;SDS011;1940;51.052;13.678;2023-08-12T10:23:57;2.00;;;1.90;;
3849;SDS011;1940;51.052;13.678;2023-08-12T10:26:24;2.53;;;1.97;;
3849;SDS011;1940;51.052;13.678;2023-08-12T10:28:50;2.00;;;1.80;;
3849;SDS011;1940;51.052;13.678;2023-08-12T10:31:16;1.77;;;1.67;;
3849;SDS011;1940;51.052;13.678;2023-08-12T10:33:43;2.40;;;2.13;;
3849;SDS011;1940;51.052;13.678;2023-08-12T10:36:09;3.93;;;2.10;;
3849;SDS011;1940;51.052;13.678;2023-08-12T10:38:34;2.40;;;2.20;;
3849;SDS011;1940;51.052;13.678;2023-08-12T10:41:14;2.80;;;2.10;;
3849;SDS011;1940;51.052;13.678;2023-08-12T10:43:53;2.43;;;2.03;;
3849;SDS011;1940;51.052;13.678;2023-08-12T10:46:30;2.10;;;1.90;;
3849;SDS011;1940;51.052;13.678;2023-08-12T10:54:25;3.83;;;2.33;;
3849;SDS011;1940;51.052;13.678;2023-08-12T10:59:46;4.17;;;2.57;;
3849;SDS011;1940;51.052;13.678;2023-08-12T11:02:19;2.90;;;2.30;;
3849;SDS011;1940;51.052;13.678;2023-08-12T11:07:37;2.40;;;2.20;;
3849;SDS011;1940;51.052;13.678;2023-08-12T11:10:23;2.17;;;2.00;;
3849;SDS011;1940;51.052;13.678;2023-08-12T11:15:32;2.50;;;2.07;;
3849;SDS011;1940;51.052;13.678;2023-08-12T11:18:12;2.57;;;2.37;;
3849;SDS011;1940;51.052;13.678;2023-08-12T11:20:41;2.10;;;2.00;;
3849;SDS011;1940;51.052;13.678;2023-08-12T11:23:07;2.00;;;1.90;;
3849;SDS011;1940;51.052;13.678;2023-08-12T11:25:34;2.10;;;1.90;;
3849;SDS011;1940;51.052;13.678;2023-08-12T11:28:03;2.20;;;2.10;;
3849;SDS011;1940;51.052;13.678;2023-08-12T11:30:29;2.97;;;2.10;;
3849;SDS011;1940;51.052;13.678;2023-08-12T11:32:55;3.20;;;2.13;;
3849;SDS011;1940;51.052;13.678;2023-08-12T11:35:23;2.60;;;2.03;;
3849;SDS011;1940;51.052;13.678;2023-08-12T11:37:50;2.27;;;2.07;;
3849;SDS011;1940;51.052;13.678;2023-08-12T11:40:18;2.27;;;1.97;;
3849;SDS011;1940;51.052;13.678;2023-08-12T11:42:45;2.40;;;2.13;;
3849;SDS011;1940;51.052;13.678;2023-08-12T11:45:12;2.10;;;2.00;;
3849;SDS011;1940;51.052;13.678;2023-08-12T11:47:40;9.80;;;2.30;;
3849;SDS011;1940;51.052;13.678;2023-08-12T11:50:06;2.40;;;2.20;;
3849;SDS011;1940;51.052;13.678;2023-08-12T11:52:34;3.03;;;2.10;;
3849;SDS011;1940;51.052;13.678;2023-08-12T11:55:00;3.80;;;2.20;;
3849;SDS011;1940;51.052;13.678;2023-08-12T11:57:26;2.83;;;2.30;;
3849;SDS011;1940;51.052;13.678;2023-08-12T11:59:53;2.37;;;2.17;;
3849;SDS011;1940;51.052;13.678;2023-08-12T12:02:24;2.33;;;2.13;;
3849;SDS011;1940;51.052;13.678;2023-08-12T12:04:52;3.17;;;2.20;;
3849;SDS011;1940;51.052;13.678;2023-08-12T12:07:18;2.40;;;2.20;;
3849;SDS011;1940;51.052;13.678;2023-08-12T12:09:46;2.73;;;2.23;;
3849;SDS011;1940;51.052;13.678;2023-08-12T12:12:12;4.23;;;2.33;;
3849;SDS011;1940;51.052;13.678;2023-08-12T12:14:37;2.53;;;2.33;;
3849;SDS011;1940;51.052;13.678;2023-08-12T12:17:07;3.40;;;2.73;;
3849;SDS011;1940;51.052;13.678;2023-08-12T12:19:34;2.43;;;2.23;;
3849;SDS011;1940;51.052;13.678;2023-08-12T12:22:01;2.83;;;2.60;;
3849;SDS011;1940;51.052;13.678;2023-08-12T12:24:29;2.70;;;2.50;;
3849;SDS011;1940;51.052;13.678;2023-08-12T12:26:55;2.80;;;2.43;;
3849;SDS011;1940;51.052;13.678;2023-08-12T12:29:21;2.60;;;2.40;;
3849;SDS011;1940;51.052;13.678;2023-08-12T12:31:47;2.90;;;2.30;;
3849;SDS011;1940;51.052;13.678;2023-08-12T12:34:13;3.00;;;2.53;;
3849;SDS011;1940;51.052;13.678;2023-08-12T12:36:39;7.93;;;4.80;;
3849;SDS011;1940;51.052;13.678;2023-08-12T12:39:06;7.90;;;3.00;;
3849;SDS011;1940;51.052;13.678;2023-08-12T12:41:32;3.10;;;2.57;;
3849;SDS011;1940;51.052;13.678;2023-08-12T12:44:01;2.97;;;2.60;;
3849;SDS011;1940;51.052;13.678;2023-08-12T12:46:27;3.47;;;2.43;;
3849;SDS011;1940;51.052;13.678;2023-08-12T12:48:53;3.23;;;2.30;;
3849;SDS011;1940;51.052;13.678;2023-08-12T12:51:18;2.93;;;2.63;;
3849;SDS011;1940;51.052;13.678;2023-08-12T12:53:44;2.90;;;2.60;;
3849;SDS011;1940;51.052;13.678;2023-08-12T12:56:09;3.73;;;2.67;;
3849;SDS011;1940;51.052;13.678;2023-08-12T12:58:35;3.27;;;2.97;;
3849;SDS011;1940;51.052;13.678;2023-08-12T13:01:02;4.00;;;2.63;;
3849;SDS011;1940;51.052;13.678;2023-08-12T13:03:29;2.70;;;2.50;;
3849;SDS011;1940;51.052;13.678;2023-08-12T13:05:55;2.93;;;2.60;;
3849;SDS011;1940;51.052;13.678;2023-08-12T13:08:21;3.87;;;2.60;;
3849;SDS011;1940;51.052;13.678;2023-08-12T13:10:47;2.90;;;2.60;;
3849;SDS011;1940;51.052;13.678;2023-08-12T13:13:14;2.90;;;2.70;;
3849;SDS011;1940;51.052;13.678;2023-08-12T13:15:42;3.10;;;2.80;;
3849;SDS011;1940;51.052;13.678;2023-08-12T13:18:08;3.30;;;2.60;;
3849;SDS011;1940;51.052;13.678;2023-08-12T13:20:35;2.80;;;2.60;;
3849;SDS011;1940;51.052;13.678;2023-08-12T13:23:00;3.50;;;3.20;;
3849;SDS011;1940;51.052;13.678;2023-08-12T13:25:28;3.03;;;2.60;;
3849;SDS011;1940;51.052;13.678;2023-08-12T13:27:56;5.23;;;3.43;;
3849;SDS011;1940;51.052;13.678;2023-08-12T13:30:22;3.63;;;3.27;;
3849;SDS011;1940;51.052;13.678;2023-08-12T13:32:48;5.00;;;2.80;;
3849;SDS011;1940;51.052;13.678;2023-08-12T13:35:13;5.40;;;3.10;;
3849;SDS011;1940;51.052;13.678;2023-08-12T13:37:39;3.37;;;3.00;;
3849;SDS011;1940;51.052;13.678;2023-08-12T13:40:05;3.20;;;3.00;;
3849;SDS011;1940;51.052;13.678;2023-08-12T13:42:31;3.10;;;2.80;;
3849;SDS011;1940;51.052;13.678;2023-08-12T13:44:57;3.20;;;2.90;;
3849;SDS011;1940;51.052;13.678;2023-08-12T13:47:22;6.57;;;2.80;;
3849;SDS011;1940;51.052;13.678;2023-08-12T13:49:48;4.23;;;2.67;;
3849;SDS011;1940;51.052;13.678;2023-08-12T13:52:13;3.10;;;2.70;;
3849;SDS011;1940;51.052;13.678;2023-08-12T13:54:39;3.30;;;3.00;;
3849;SDS011;1940;51.052;13.678;2023-08-12T13:57:04;3.27;;;2.97;;
3849;SDS011;1940;51.052;13.678;2023-08-12T13:59:30;4.77;;;2.60;;
3849;SDS011;1940;51.052;13.678;2023-08-12T14:01:55;3.40;;;3.03;;
3849;SDS011;1940;51.052;13.678;2023-08-12T14:04:21;5.00;;;3.23;;
3849;SDS011;1940;51.052;13.678;2023-08-12T14:06:46;7.30;;;3.07;;
3849;SDS011;1940;51.052;13.678;2023-08-12T14:09:12;4.20;;;3.20;;
3849;SDS011;1940;51.052;13.678;2023-08-12T14:11:39;4.20;;;3.10;;
3849;SDS011;1940;51.052;13.678;2023-08-12T14:14:05;3.40;;;3.10;;
3849;SDS011;1940;51.052;13.678;2023-08-12T14:16:30;8.13;;;3.33;;
3849;SDS011;1940;51.052;13.678;2023-08-12T14:18:56;3.40;;;3.10;;
3849;SDS011;1940;51.052;13.678;2023-08-12T14:21:21;3.20;;;2.90;;
3849;SDS011;1940;51.052;13.678;2023-08-12T14:23:47;3.90;;;3.13;;
3849;SDS011;1940;51.052;13.678;2023-08-12T14:26:12;5.30;;;3.17;;
3849;SDS011;1940;51.052;13.678;2023-08-12T14:28:38;3.60;;;3.03;;
3849;SDS011;1940;51.052;13.678;2023-08-12T14:31:03;3.20;;;2.90;;
3849;SDS011;1940;51.052;13.678;2023-08-12T14:33:29;5.87;;;3.10;;
3849;SDS011;1940;51.052;13.678;2023-08-12T14:35:58;4.30;;;3.30;;
3849;SDS011;1940;51.052;13.678;2023-08-12T14:38:23;3.83;;;3.40;;
3849;SDS011;1940;51.052;13.678;2023-08-12T14:40:49;3.80;;;3.40;;
3849;SDS011;1940;51.052;13.678;2023-08-12T14:43:15;7.13;;;3.27;;
3849;SDS011;1940;51.052;13.678;2023-08-12T14:45:40;3.40;;;3.10;;
3849;SDS011;1940;51.052;13.678;2023-08-12T14:48:06;3.27;;;2.97;;
3849;SDS011;1940;51.052;13.678;2023-08-12T14:50:32;3.40;;;3.10;;
3849;SDS011;1940;51.052;13.678;2023-08-12T14:52:57;3.37;;;3.07;;
3849;SDS011;1940;51.052;13.678;2023-08-12T14:55:23;3.67;;;2.93;;
3849;SDS011;1940;51.052;13.678;2023-08-12T14:57:48;3.33;;;3.03;;
3849;SDS011;1940;51.052;13.678;2023-08-12T15:00:14;3.50;;;2.80;;
3849;SDS011;1940;51.052;13.678;2023-08-12T15:02:40;3.43;;;3.13;;
3849;SDS011;1940;51.052;13.678;2023-08-12T15:05:05;3.60;;;3.10;;
3849;SDS011;1940;51.052;13.678;2023-08-12T15:07:31;3.40;;;3.10;;
3849;SDS011;1940;51.052;13.678;2023-08-12T15:09:57;3.50;;;3.00;;